Terminal Aerodrome Forecast
Issued by NWS

Home | Current Version | Previous Version | Text Only | Print | Product List | Glossary On
Versions: 1 2 3 4 5 6 7 8 9 10 11 12 13 14
000
FTUS43 KDLH 021100
TAFHYR
TAF
KHYR 021137Z 0212/0312 17007KT P6SM BKN110
     FM021600 18011G18KT P6SM SCT070 BKN150
     FM030100 16008KT P6SM SCT050 BKN150
     FM031100 17008KT P6SM SCT015 BKN020=

USA.gov is the U.S. government's official web portal to all federal, state and local government web resources and services.